sensor_id;sensor_type;location;lat;lon;timestamp;P1;durP1;ratioP1;P2;durP2;ratioP2
10523;SDS011;5310;48.638;9.060;2023-01-15T00:01:23;0.40;;;0.40;;
10523;SDS011;5310;48.638;9.060;2023-01-15T00:03:51;0.65;;;0.65;;
10523;SDS011;5310;48.638;9.060;2023-01-15T00:06:17;0.50;;;0.50;;
10523;SDS011;5310;48.638;9.060;2023-01-15T00:08:43;0.47;;;0.47;;
10523;SDS011;5310;48.638;9.060;2023-01-15T00:11:10;0.70;;;0.70;;
10523;SDS011;5310;48.638;9.060;2023-01-15T00:13:36;0.50;;;0.50;;
10523;SDS011;5310;48.638;9.060;2023-01-15T00:16:23;0.50;;;0.50;;
10523;SDS011;5310;48.638;9.060;2023-01-15T00:18:51;0.50;;;0.50;;
10523;SDS011;5310;48.638;9.060;2023-01-15T00:21:17;0.43;;;0.43;;
10523;SDS011;5310;48.638;9.060;2023-01-15T00:23:44;0.70;;;0.70;;
10523;SDS011;5310;48.638;9.060;2023-01-15T00:26:29;0.50;;;0.50;;
10523;SDS011;5310;48.638;9.060;2023-01-15T00:29:14;0.63;;;0.63;;
10523;SDS011;5310;48.638;9.060;2023-01-15T00:31:40;0.50;;;0.50;;
10523;SDS011;5310;48.638;9.060;2023-01-15T00:34:06;0.52;;;0.52;;
10523;SDS011;5310;48.638;9.060;2023-01-15T00:36:32;0.57;;;0.57;;
10523;SDS011;5310;48.638;9.060;2023-01-15T00:38:59;0.40;;;0.40;;
10523;SDS011;5310;48.638;9.060;2023-01-15T00:41:26;0.60;;;0.60;;
10523;SDS011;5310;48.638;9.060;2023-01-15T00:43:52;0.45;;;0.45;;
10523;SDS011;5310;48.638;9.060;2023-01-15T00:46:19;0.60;;;0.60;;
10523;SDS011;5310;48.638;9.060;2023-01-15T00:48:45;0.50;;;0.50;;
10523;SDS011;5310;48.638;9.060;2023-01-15T00:51:11;0.60;;;0.60;;
10523;SDS011;5310;48.638;9.060;2023-01-15T00:53:37;0.60;;;0.60;;
10523;SDS011;5310;48.638;9.060;2023-01-15T00:56:02;0.40;;;0.40;;
10523;SDS011;5310;48.638;9.060;2023-01-15T00:58:28;0.60;;;0.60;;
10523;SDS011;5310;48.638;9.060;2023-01-15T01:00:56;0.50;;;0.50;;
10523;SDS011;5310;48.638;9.060;2023-01-15T01:03:23;0.60;;;0.60;;
10523;SDS011;5310;48.638;9.060;2023-01-15T01:05:49;0.60;;;0.60;;
10523;SDS011;5310;48.638;9.060;2023-01-15T01:08:15;0.40;;;0.40;;
10523;SDS011;5310;48.638;9.060;2023-01-15T01:10:41;0.55;;;0.55;;
10523;SDS011;5310;48.638;9.060;2023-01-15T01:13:08;0.50;;;0.50;;
10523;SDS011;5310;48.638;9.060;2023-01-15T01:15:34;0.50;;;0.50;;
10523;SDS011;5310;48.638;9.060;2023-01-15T01:18:00;0.43;;;0.43;;
10523;SDS011;5310;48.638;9.060;2023-01-15T01:20:26;0.60;;;0.60;;
10523;SDS011;5310;48.638;9.060;2023-01-15T01:22:52;0.50;;;0.50;;
10523;SDS011;5310;48.638;9.060;2023-01-15T01:25:18;0.70;;;0.70;;
10523;SDS011;5310;48.638;9.060;2023-01-15T01:27:44;0.50;;;0.50;;
10523;SDS011;5310;48.638;9.060;2023-01-15T01:30:11;0.40;;;0.40;;
10523;SDS011;5310;48.638;9.060;2023-01-15T01:32:42;0.50;;;0.50;;
10523;SDS011;5310;48.638;9.060;2023-01-15T01:35:09;0.40;;;0.40;;
10523;SDS011;5310;48.638;9.060;2023-01-15T01:37:35;0.60;;;0.60;;
10523;SDS011;5310;48.638;9.060;2023-01-15T01:40:01;0.43;;;0.43;;
10523;SDS011;5310;48.638;9.060;2023-01-15T01:42:27;0.50;;;0.50;;
10523;SDS011;5310;48.638;9.060;2023-01-15T01:44:56;0.60;;;0.60;;
10523;SDS011;5310;48.638;9.060;2023-01-15T01:47:25;0.40;;;0.40;;
10523;SDS011;5310;48.638;9.060;2023-01-15T01:49:59;0.70;;;0.70;;
10523;SDS011;5310;48.638;9.060;2023-01-15T01:52:35;0.43;;;0.43;;
10523;SDS011;5310;48.638;9.060;2023-01-15T01:55:05;0.60;;;0.60;;
10523;SDS011;5310;48.638;9.060;2023-01-15T01:57:32;0.50;;;0.50;;
10523;SDS011;5310;48.638;9.060;2023-01-15T01:59:58;0.40;;;0.40;;
10523;SDS011;5310;48.638;9.060;2023-01-15T02:02:25;0.60;;;0.60;;
10523;SDS011;5310;48.638;9.060;2023-01-15T02:04:52;0.50;;;0.50;;
10523;SDS011;5310;48.638;9.060;2023-01-15T02:07:18;0.52;;;0.52;;
10523;SDS011;5310;48.638;9.060;2023-01-15T02:09:44;0.50;;;0.50;;
10523;SDS011;5310;48.638;9.060;2023-01-15T02:12:16;0.40;;;0.40;;
10523;SDS011;5310;48.638;9.060;2023-01-15T02:14:49;0.60;;;0.60;;
10523;SDS011;5310;48.638;9.060;2023-01-15T02:17:20;0.40;;;0.40;;
10523;SDS011;5310;48.638;9.060;2023-01-15T02:27:32;0.40;;;0.40;;
10523;SDS011;5310;48.638;9.060;2023-01-15T02:30:02;0.63;;;0.63;;
10523;SDS011;5310;48.638;9.060;2023-01-15T02:32:31;0.50;;;0.50;;
10523;SDS011;5310;48.638;9.060;2023-01-15T02:35:01;0.60;;;0.60;;
10523;SDS011;5310;48.638;9.060;2023-01-15T02:37:30;0.40;;;0.40;;
10523;SDS011;5310;48.638;9.060;2023-01-15T02:39:58;0.60;;;0.60;;
10523;SDS011;5310;48.638;9.060;2023-01-15T02:42:27;0.43;;;0.43;;
10523;SDS011;5310;48.638;9.060;2023-01-15T02:44:54;0.47;;;0.47;;
10523;SDS011;5310;48.638;9.060;2023-01-15T02:47:23;0.50;;;0.50;;
10523;SDS011;5310;48.638;9.060;2023-01-15T02:49:50;0.50;;;0.50;;
10523;SDS011;5310;48.638;9.060;2023-01-15T02:52:20;0.50;;;0.50;;
10523;SDS011;5310;48.638;9.060;2023-01-15T02:54:49;0.40;;;0.40;;
10523;SDS011;5310;48.638;9.060;2023-01-15T02:57:16;0.60;;;0.60;;
10523;SDS011;5310;48.638;9.060;2023-01-15T02:59:44;0.40;;;0.40;;
10523;SDS011;5310;48.638;9.060;2023-01-15T03:02:19;0.60;;;0.60;;
10523;SDS011;5310;48.638;9.060;2023-01-15T03:04:47;0.40;;;0.40;;
10523;SDS011;5310;48.638;9.060;2023-01-15T03:07:30;0.50;;;0.50;;
10523;SDS011;5310;48.638;9.060;2023-01-15T03:09:57;0.57;;;0.57;;
10523;SDS011;5310;48.638;9.060;2023-01-15T03:12:24;0.50;;;0.50;;
10523;SDS011;5310;48.638;9.060;2023-01-15T03:15:07;0.60;;;0.60;;
10523;SDS011;5310;48.638;9.060;2023-01-15T03:17:58;0.50;;;0.50;;
10523;SDS011;5310;48.638;9.060;2023-01-15T03:20:26;0.50;;;0.50;;
10523;SDS011;5310;48.638;9.060;2023-01-15T03:22:53;0.50;;;0.50;;
10523;SDS011;5310;48.638;9.060;2023-01-15T03:25:27;0.40;;;0.40;;
10523;SDS011;5310;48.638;9.060;2023-01-15T03:27:57;0.50;;;0.50;;
10523;SDS011;5310;48.638;9.060;2023-01-15T03:30:24;0.40;;;0.40;;
10523;SDS011;5310;48.638;9.060;2023-01-15T11:31:16;1.10;;;1.10;;
10523;SDS011;5310;48.638;9.060;2023-01-15T11:33:56;1.00;;;1.00;;
10523;SDS011;5310;48.638;9.060;2023-01-15T11:36:23;1.00;;;1.00;;
10523;SDS011;5310;48.638;9.060;2023-01-15T11:38:50;1.07;;;1.07;;
10523;SDS011;5310;48.638;9.060;2023-01-15T11:41:26;1.00;;;1.00;;
10523;SDS011;5310;48.638;9.060;2023-01-15T11:44:13;1.00;;;1.00;;
10523;SDS011;5310;48.638;9.060;2023-01-15T11:46:58;1.00;;;1.00;;
10523;SDS011;5310;48.638;9.060;2023-01-15T11:49:49;1.00;;;1.00;;
10523;SDS011;5310;48.638;9.060;2023-01-15T11:52:35;1.00;;;1.00;;
10523;SDS011;5310;48.638;9.060;2023-01-15T11:55:01;1.00;;;1.00;;
10523;SDS011;5310;48.638;9.060;2023-01-15T11:57:31;1.07;;;1.07;;
10523;SDS011;5310;48.638;9.060;2023-01-15T11:59:59;1.00;;;1.00;;
10523;SDS011;5310;48.638;9.060;2023-01-15T12:02:37;1.00;;;1.00;;
10523;SDS011;5310;48.638;9.060;2023-01-15T12:05:18;1.00;;;1.00;;
10523;SDS011;5310;48.638;9.060;2023-01-15T12:07:46;1.00;;;1.00;;
10523;SDS011;5310;48.638;9.060;2023-01-15T12:10:25;1.00;;;1.00;;
10523;SDS011;5310;48.638;9.060;2023-01-15T12:23:50;1.00;;;1.00;;
10523;SDS011;5310;48.638;9.060;2023-01-15T12:26:26;1.00;;;1.00;;
10523;SDS011;5310;48.638;9.060;2023-01-15T12:29:01;1.00;;;1.00;;
10523;SDS011;5310;48.638;9.060;2023-01-15T12:31:34;1.00;;;1.00;;
10523;SDS011;5310;48.638;9.060;2023-01-15T12:34:07;1.10;;;1.10;;
10523;SDS011;5310;48.638;9.060;2023-01-15T12:36:44;1.10;;;1.10;;
10523;SDS011;5310;48.638;9.060;2023-01-15T12:41:38;1.00;;;1.00;;
10523;SDS011;5310;48.638;9.060;2023-01-15T12:44:33;1.10;;;1.10;;
10523;SDS011;5310;48.638;9.060;2023-01-15T12:47:21;1.00;;;1.00;;
10523;SDS011;5310;48.638;9.060;2023-01-15T12:49:54;1.00;;;1.00;;
10523;SDS011;5310;48.638;9.060;2023-01-15T12:52:26;1.10;;;1.10;;
10523;SDS011;5310;48.638;9.060;2023-01-15T12:55:12;1.10;;;1.10;;
10523;SDS011;5310;48.638;9.060;2023-01-15T12:57:39;1.10;;;1.10;;
10523;SDS011;5310;48.638;9.060;2023-01-15T13:00:11;1.00;;;1.00;;
10523;SDS011;5310;48.638;9.060;2023-01-15T13:05:15;1.10;;;1.10;;
10523;SDS011;5310;48.638;9.060;2023-01-15T13:07:44;1.10;;;1.10;;
10523;SDS011;5310;48.638;9.060;2023-01-15T13:10:27;1.00;;;1.00;;
10523;SDS011;5310;48.638;9.060;2023-01-15T13:12:59;1.00;;;1.00;;
10523;SDS011;5310;48.638;9.060;2023-01-15T13:15:27;1.00;;;1.00;;
10523;SDS011;5310;48.638;9.060;2023-01-15T13:17:57;1.10;;;1.10;;
10523;SDS011;5310;48.638;9.060;2023-01-15T13:26:16;1.10;;;1.10;;
10523;SDS011;5310;48.638;9.060;2023-01-15T13:33:25;1.10;;;1.10;;
10523;SDS011;5310;48.638;9.060;2023-01-15T13:38:41;1.10;;;1.10;;
10523;SDS011;5310;48.638;9.060;2023-01-15T13:41:08;1.10;;;1.10;;
10523;SDS011;5310;48.638;9.060;2023-01-15T13:43:35;1.00;;;1.00;;
10523;SDS011;5310;48.638;9.060;2023-01-15T13:46:03;1.00;;;1.00;;
10523;SDS011;5310;48.638;9.060;2023-01-15T13:50:56;1.10;;;1.10;;
10523;SDS011;5310;48.638;9.060;2023-01-15T13:53:30;1.00;;;1.00;;
10523;SDS011;5310;48.638;9.060;2023-01-15T13:56:01;1.00;;;1.00;;
10523;SDS011;5310;48.638;9.060;2023-01-15T13:58:34;1.10;;;1.10;;
10523;SDS011;5310;48.638;9.060;2023-01-15T14:14:53;1.00;;;1.00;;
10523;SDS011;5310;48.638;9.060;2023-01-15T14:17:30;1.10;;;1.10;;
10523;SDS011;5310;48.638;9.060;2023-01-15T14:20:26;1.10;;;1.10;;
10523;SDS011;5310;48.638;9.060;2023-01-15T14:36:37;1.10;;;1.10;;
10523;SDS011;5310;48.638;9.060;2023-01-15T14:39:06;1.00;;;1.00;;
10523;SDS011;5310;48.638;9.060;2023-01-15T14:41:45;1.00;;;1.00;;
10523;SDS011;5310;48.638;9.060;2023-01-15T14:44:31;1.10;;;1.10;;
10523;SDS011;5310;48.638;9.060;2023-01-15T14:47:04;1.00;;;1.00;;
10523;SDS011;5310;48.638;9.060;2023-01-15T14:49:41;0.90;;;0.90;;
10523;SDS011;5310;48.638;9.060;2023-01-15T14:52:12;1.10;;;1.10;;
10523;SDS011;5310;48.638;9.060;2023-01-15T14:54:38;1.00;;;1.00;;
10523;SDS011;5310;48.638;9.060;2023-01-15T14:57:06;1.10;;;1.10;;
10523;SDS011;5310;48.638;9.060;2023-01-15T14:59:41;1.10;;;1.10;;
10523;SDS011;5310;48.638;9.060;2023-01-15T15:02:21;1.10;;;1.10;;
10523;SDS011;5310;48.638;9.060;2023-01-15T15:04:55;1.10;;;1.10;;
10523;SDS011;5310;48.638;9.060;2023-01-15T15:07:23;1.10;;;1.10;;
10523;SDS011;5310;48.638;9.060;2023-01-15T15:12:37;1.10;;;1.10;;
10523;SDS011;5310;48.638;9.060;2023-01-15T15:15:34;1.10;;;1.10;;
10523;SDS011;5310;48.638;9.060;2023-01-15T15:18:02;1.10;;;1.10;;
10523;SDS011;5310;48.638;9.060;2023-01-15T15:20:53;1.00;;;1.00;;
10523;SDS011;5310;48.638;9.060;2023-01-15T15:23:42;1.10;;;1.10;;
10523;SDS011;5310;48.638;9.060;2023-01-15T15:29:10;1.10;;;1.10;;
10523;SDS011;5310;48.638;9.060;2023-01-15T15:31:39;1.10;;;1.10;;
10523;SDS011;5310;48.638;9.060;2023-01-15T15:34:15;1.10;;;1.10;;
10523;SDS011;5310;48.638;9.060;2023-01-15T15:36:59;1.00;;;1.00;;
10523;SDS011;5310;48.638;9.060;2023-01-15T15:39:40;1.10;;;1.10;;
10523;SDS011;5310;48.638;9.060;2023-01-15T15:42:29;1.10;;;1.10;;
10523;SDS011;5310;48.638;9.060;2023-01-15T15:45:23;1.10;;;1.10;;
10523;SDS011;5310;48.638;9.060;2023-01-15T15:48:18;1.00;;;1.00;;
10523;SDS011;5310;48.638;9.060;2023-01-15T15:51:03;1.10;;;1.10;;
10523;SDS011;5310;48.638;9.060;2023-01-15T15:53:30;1.00;;;1.00;;
10523;SDS011;5310;48.638;9.060;2023-01-15T15:55:56;1.10;;;1.10;;
10523;SDS011;5310;48.638;9.060;2023-01-15T15:58:24;1.10;;;1.10;;
10523;SDS011;5310;48.638;9.060;2023-01-15T16:00:51;1.00;;;1.00;;
10523;SDS011;5310;48.638;9.060;2023-01-15T16:03:20;1.10;;;1.10;;
10523;SDS011;5310;48.638;9.060;2023-01-15T16:06:21;1.10;;;1.10;;
10523;SDS011;5310;48.638;9.060;2023-01-15T16:08:56;1.10;;;1.10;;
10523;SDS011;5310;48.638;9.060;2023-01-15T16:11:28;1.10;;;1.10;;
10523;SDS011;5310;48.638;9.060;2023-01-15T16:13:55;1.10;;;1.10;;
10523;SDS011;5310;48.638;9.060;2023-01-15T16:16:23;1.10;;;1.10;;
10523;SDS011;5310;48.638;9.060;2023-01-15T16:18:51;1.10;;;1.10;;
10523;SDS011;5310;48.638;9.060;2023-01-15T16:21:20;1.10;;;1.10;;
10523;SDS011;5310;48.638;9.060;2023-01-15T16:29:01;1.10;;;1.10;;
10523;SDS011;5310;48.638;9.060;2023-01-15T16:31:34;1.10;;;1.10;;
10523;SDS011;5310;48.638;9.060;2023-01-15T16:34:01;1.10;;;1.10;;
10523;SDS011;5310;48.638;9.060;2023-01-15T16:36:28;1.10;;;1.10;;
10523;SDS011;5310;48.638;9.060;2023-01-15T16:39:02;1.10;;;1.10;;
10523;SDS011;5310;48.638;9.060;2023-01-15T16:41:31;1.10;;;1.10;;
10523;SDS011;5310;48.638;9.060;2023-01-15T16:44:02;1.10;;;1.10;;
10523;SDS011;5310;48.638;9.060;2023-01-15T16:46:30;1.10;;;1.10;;
10523;SDS011;5310;48.638;9.060;2023-01-15T16:51:50;1.10;;;1.10;;
10523;SDS011;5310;48.638;9.060;2023-01-15T16:57:00;1.00;;;1.00;;
10523;SDS011;5310;48.638;9.060;2023-01-15T17:04:26;1.20;;;1.20;;
10523;SDS011;5310;48.638;9.060;2023-01-15T17:06:53;1.10;;;1.10;;
10523;SDS011;5310;48.638;9.060;2023-01-15T17:09:20;1.10;;;1.10;;
10523;SDS011;5310;48.638;9.060;2023-01-15T17:11:49;1.10;;;1.10;;
10523;SDS011;5310;48.638;9.060;2023-01-15T17:16:42;1.10;;;1.10;;
10523;SDS011;5310;48.638;9.060;2023-01-15T17:19:08;1.10;;;1.10;;
10523;SDS011;5310;48.638;9.060;2023-01-15T17:21:35;1.10;;;1.10;;
10523;SDS011;5310;48.638;9.060;2023-01-15T17:24:03;1.10;;;1.10;;
10523;SDS011;5310;48.638;9.060;2023-01-15T17:26:30;1.10;;;1.10;;
10523;SDS011;5310;48.638;9.060;2023-01-15T17:28:56;1.10;;;1.10;;
10523;SDS011;5310;48.638;9.060;2023-01-15T17:31:23;1.10;;;1.10;;
10523;SDS011;5310;48.638;9.060;2023-01-15T17:33:54;1.10;;;1.10;;
10523;SDS011;5310;48.638;9.060;2023-01-15T17:36:20;1.10;;;1.10;;
10523;SDS011;5310;48.638;9.060;2023-01-15T17:38:46;1.10;;;1.10;;
10523;SDS011;5310;48.638;9.060;2023-01-15T17:41:13;1.10;;;1.10;;
10523;SDS011;5310;48.638;9.060;2023-01-15T17:43:42;1.10;;;1.10;;
10523;SDS011;5310;48.638;9.060;2023-01-15T17:46:08;1.10;;;1.10;;
10523;SDS011;5310;48.638;9.060;2023-01-15T17:48:34;1.20;;;1.20;;
10523;SDS011;5310;48.638;9.060;2023-01-15T17:51:02;1.10;;;1.10;;
10523;SDS011;5310;48.638;9.060;2023-01-15T17:53:29;1.10;;;1.10;;
10523;SDS011;5310;48.638;9.060;2023-01-15T17:55:56;1.10;;;1.10;;
10523;SDS011;5310;48.638;9.060;2023-01-15T17:58:41;1.10;;;1.10;;
10523;SDS011;5310;48.638;9.060;2023-01-15T18:01:25;1.10;;;1.10;;
10523;SDS011;5310;48.638;9.060;2023-01-15T18:04:18;1.10;;;1.10;;
10523;SDS011;5310;48.638;9.060;2023-01-15T18:07:06;1.13;;;1.13;;
10523;SDS011;5310;48.638;9.060;2023-01-15T18:09:33;1.10;;;1.10;;
10523;SDS011;5310;48.638;9.060;2023-01-15T18:11:59;1.10;;;1.10;;
10523;SDS011;5310;48.638;9.060;2023-01-15T18:14:25;1.10;;;1.10;;
10523;SDS011;5310;48.638;9.060;2023-01-15T18:16:51;1.10;;;1.10;;
10523;SDS011;5310;48.638;9.060;2023-01-15T18:19:18;1.10;;;1.10;;
10523;SDS011;5310;48.638;9.060;2023-01-15T18:21:44;1.10;;;1.10;;
10523;SDS011;5310;48.638;9.060;2023-01-15T18:24:10;1.10;;;1.10;;
10523;SDS011;5310;48.638;9.060;2023-01-15T18:26:40;1.10;;;1.10;;
10523;SDS011;5310;48.638;9.060;2023-01-15T18:29:07;1.10;;;1.10;;
10523;SDS011;5310;48.638;9.060;2023-01-15T18:31:35;1.10;;;1.10;;
10523;SDS011;5310;48.638;9.060;2023-01-15T18:34:01;1.10;;;1.10;;
10523;SDS011;5310;48.638;9.060;2023-01-15T18:36:27;1.10;;;1.10;;
10523;SDS011;5310;48.638;9.060;2023-01-15T18:38:53;1.20;;;1.20;;
10523;SDS011;5310;48.638;9.060;2023-01-15T18:41:20;1.10;;;1.10;;
10523;SDS011;5310;48.638;9.060;2023-01-15T18:44:02;1.10;;;1.10;;
10523;SDS011;5310;48.638;9.060;2023-01-15T18:46:54;1.10;;;1.10;;
10523;SDS011;5310;48.638;9.060;2023-01-15T18:49:21;1.13;;;1.13;;
10523;SDS011;5310;48.638;9.060;2023-01-15T18:51:47;1.00;;;1.00;;
10523;SDS011;5310;48.638;9.060;2023-01-15T18:54:33;1.10;;;1.10;;
10523;SDS011;5310;48.638;9.060;2023-01-15T18:56:59;1.10;;;1.10;;
10523;SDS011;5310;48.638;9.060;2023-01-15T18:59:25;1.10;;;1.10;;
10523;SDS011;5310;48.638;9.060;2023-01-15T19:01:52;1.10;;;1.10;;
10523;SDS011;5310;48.638;9.060;2023-01-15T19:04:18;1.10;;;1.10;;
10523;SDS011;5310;48.638;9.060;2023-01-15T19:06:44;1.10;;;1.10;;
10523;SDS011;5310;48.638;9.060;2023-01-15T19:09:11;1.10;;;1.10;;
10523;SDS011;5310;48.638;9.060;2023-01-15T19:11:40;1.10;;;1.10;;
10523;SDS011;5310;48.638;9.060;2023-01-15T19:14:06;1.10;;;1.10;;
10523;SDS011;5310;48.638;9.060;2023-01-15T19:16:50;1.10;;;1.10;;
10523;SDS011;5310;48.638;9.060;2023-01-15T19:19:35;1.10;;;1.10;;
10523;SDS011;5310;48.638;9.060;2023-01-15T19:22:02;1.10;;;1.10;;
10523;SDS011;5310;48.638;9.060;2023-01-15T19:24:54;1.10;;;1.10;;
10523;SDS011;5310;48.638;9.060;2023-01-15T19:27:20;1.10;;;1.10;;
10523;SDS011;5310;48.638;9.060;2023-01-15T19:29:46;1.10;;;1.10;;
10523;SDS011;5310;48.638;9.060;2023-01-15T19:32:12;1.10;;;1.10;;
10523;SDS011;5310;48.638;9.060;2023-01-15T19:34:37;1.10;;;1.10;;
10523;SDS011;5310;48.638;9.060;2023-01-15T19:37:03;1.10;;;1.10;;
10523;SDS011;5310;48.638;9.060;2023-01-15T19:39:29;1.10;;;1.10;;
10523;SDS011;5310;48.638;9.060;2023-01-15T19:41:55;1.10;;;1.10;;
10523;SDS011;5310;48.638;9.060;2023-01-15T19:44:41;1.10;;;1.10;;
10523;SDS011;5310;48.638;9.060;2023-01-15T19:47:30;1.10;;;1.10;;
10523;SDS011;5310;48.638;9.060;2023-01-15T19:50:20;1.10;;;1.10;;
10523;SDS011;5310;48.638;9.060;2023-01-15T19:52:51;1.10;;;1.10;;
10523;SDS011;5310;48.638;9.060;2023-01-15T19:55:18;1.10;;;1.10;;
10523;SDS011;5310;48.638;9.060;2023-01-15T19:57:45;1.10;;;1.10;;
10523;SDS011;5310;48.638;9.060;2023-01-15T20:00:14;1.10;;;1.10;;
10523;SDS011;5310;48.638;9.060;2023-01-15T20:02:44;1.10;;;1.10;;
10523;SDS011;5310;48.638;9.060;2023-01-15T20:05:11;1.10;;;1.10;;
10523;SDS011;5310;48.638;9.060;2023-01-15T20:07:37;1.10;;;1.10;;
10523;SDS011;5310;48.638;9.060;2023-01-15T20:10:04;1.10;;;1.10;;
10523;SDS011;5310;48.638;9.060;2023-01-15T20:12:31;1.17;;;1.17;;
10523;SDS011;5310;48.638;9.060;2023-01-15T20:15:16;1.10;;;1.10;;
10523;SDS011;5310;48.638;9.060;2023-01-15T20:17:42;1.13;;;1.13;;
10523;SDS011;5310;48.638;9.060;2023-01-15T20:20:08;1.10;;;1.10;;
10523;SDS011;5310;48.638;9.060;2023-01-15T20:22:34;1.00;;;1.00;;
10523;SDS011;5310;48.638;9.060;2023-01-15T20:25:00;1.17;;;1.17;;
10523;SDS011;5310;48.638;9.060;2023-01-15T20:27:28;1.10;;;1.10;;
10523;SDS011;5310;48.638;9.060;2023-01-15T20:29:58;1.10;;;1.10;;
10523;SDS011;5310;48.638;9.060;2023-01-15T20:32:37;1.10;;;1.10;;
10523;SDS011;5310;48.638;9.060;2023-01-15T20:35:04;1.10;;;1.10;;
10523;SDS011;5310;48.638;9.060;2023-01-15T20:37:31;1.20;;;1.20;;
10523;SDS011;5310;48.638;9.060;2023-01-15T20:39:57;1.10;;;1.10;;
10523;SDS011;5310;48.638;9.060;2023-01-15T20:42:26;1.10;;;1.10;;
10523;SDS011;5310;48.638;9.060;2023-01-15T20:45:10;1.10;;;1.10;;
10523;SDS011;5310;48.638;9.060;2023-01-15T20:47:39;1.10;;;1.10;;
10523;SDS011;5310;48.638;9.060;2023-01-15T20:50:25;1.10;;;1.10;;
10523;SDS011;5310;48.638;9.060;2023-01-15T20:52:52;1.10;;;1.10;;
10523;SDS011;5310;48.638;9.060;2023-01-15T20:55:22;1.10;;;1.10;;
10523;SDS011;5310;48.638;9.060;2023-01-15T20:57:49;1.10;;;1.10;;
10523;SDS011;5310;48.638;9.060;2023-01-15T21:00:17;1.10;;;1.10;;
10523;SDS011;5310;48.638;9.060;2023-01-15T21:02:44;1.10;;;1.10;;
10523;SDS011;5310;48.638;9.060;2023-01-15T21:05:11;1.20;;;1.20;;
10523;SDS011;5310;48.638;9.060;2023-01-15T21:07:37;1.10;;;1.10;;
10523;SDS011;5310;48.638;9.060;2023-01-15T21:10:05;1.10;;;1.10;;
10523;SDS011;5310;48.638;9.060;2023-01-15T21:12:33;1.20;;;1.20;;
10523;SDS011;5310;48.638;9.060;2023-01-15T21:14:59;1.10;;;1.10;;
10523;SDS011;5310;48.638;9.060;2023-01-15T21:17:25;1.10;;;1.10;;
10523;SDS011;5310;48.638;9.060;2023-01-15T21:19:51;1.10;;;1.10;;
10523;SDS011;5310;48.638;9.060;2023-01-15T21:22:17;1.10;;;1.10;;
10523;SDS011;5310;48.638;9.060;2023-01-15T21:24:43;1.20;;;1.20;;
10523;SDS011;5310;48.638;9.060;2023-01-15T21:27:11;1.10;;;1.10;;
10523;SDS011;5310;48.638;9.060;2023-01-15T21:29:37;1.10;;;1.10;;
10523;SDS011;5310;48.638;9.060;2023-01-15T21:32:03;1.20;;;1.20;;
10523;SDS011;5310;48.638;9.060;2023-01-15T21:34:29;1.20;;;1.20;;
10523;SDS011;5310;48.638;9.060;2023-01-15T21:36:56;1.10;;;1.10;;
10523;SDS011;5310;48.638;9.060;2023-01-15T21:39:22;1.10;;;1.10;;
10523;SDS011;5310;48.638;9.060;2023-01-15T21:41:48;1.10;;;1.10;;
10523;SDS011;5310;48.638;9.060;2023-01-15T21:44:32;1.10;;;1.10;;
10523;SDS011;5310;48.638;9.060;2023-01-15T21:49:26;1.10;;;1.10;;
10523;SDS011;5310;48.638;9.060;2023-01-15T21:51:52;1.10;;;1.10;;
10523;SDS011;5310;48.638;9.060;2023-01-15T21:54:19;1.10;;;1.10;;
10523;SDS011;5310;48.638;9.060;2023-01-15T21:56:52;1.10;;;1.10;;
10523;SDS011;5310;48.638;9.060;2023-01-15T21:59:21;1.20;;;1.20;;
10523;SDS011;5310;48.638;9.060;2023-01-15T22:01:53;1.10;;;1.10;;
10523;SDS011;5310;48.638;9.060;2023-01-15T22:04:20;1.10;;;1.10;;
10523;SDS011;5310;48.638;9.060;2023-01-15T22:06:48;1.10;;;1.10;;
10523;SDS011;5310;48.638;9.060;2023-01-15T22:09:15;1.10;;;1.10;;
10523;SDS011;5310;48.638;9.060;2023-01-15T22:11:47;1.10;;;1.10;;
10523;SDS011;5310;48.638;9.060;2023-01-15T22:14:14;1.10;;;1.10;;
10523;SDS011;5310;48.638;9.060;2023-01-15T22:16:42;1.10;;;1.10;;
10523;SDS011;5310;48.638;9.060;2023-01-15T22:19:12;1.10;;;1.10;;
10523;SDS011;5310;48.638;9.060;2023-01-15T22:21:47;1.10;;;1.10;;
10523;SDS011;5310;48.638;9.060;2023-01-15T22:24:13;1.10;;;1.10;;
10523;SDS011;5310;48.638;9.060;2023-01-15T22:26:42;1.10;;;1.10;;
10523;SDS011;5310;48.638;9.060;2023-01-15T22:29:13;1.10;;;1.10;;
10523;SDS011;5310;48.638;9.060;2023-01-15T22:31:39;1.10;;;1.10;;
10523;SDS011;5310;48.638;9.060;2023-01-15T22:34:08;1.10;;;1.10;;
10523;SDS011;5310;48.638;9.060;2023-01-15T22:36:34;1.10;;;1.10;;
10523;SDS011;5310;48.638;9.060;2023-01-15T22:39:02;1.10;;;1.10;;
10523;SDS011;5310;48.638;9.060;2023-01-15T22:41:28;1.10;;;1.10;;
10523;SDS011;5310;48.638;9.060;2023-01-15T22:44:13;1.10;;;1.10;;
10523;SDS011;5310;48.638;9.060;2023-01-15T22:46:39;1.20;;;1.20;;
10523;SDS011;5310;48.638;9.060;2023-01-15T22:49:04;1.10;;;1.10;;
10523;SDS011;5310;48.638;9.060;2023-01-15T22:51:30;1.10;;;1.10;;
10523;SDS011;5310;48.638;9.060;2023-01-15T22:53:58;1.00;;;1.00;;
10523;SDS011;5310;48.638;9.060;2023-01-15T22:56:24;1.20;;;1.20;;
10523;SDS011;5310;48.638;9.060;2023-01-15T22:58:53;1.10;;;1.10;;
10523;SDS011;5310;48.638;9.060;2023-01-15T23:01:19;1.10;;;1.10;;
10523;SDS011;5310;48.638;9.060;2023-01-15T23:03:45;1.10;;;1.10;;
10523;SDS011;5310;48.638;9.060;2023-01-15T23:06:11;1.17;;;1.17;;
10523;SDS011;5310;48.638;9.060;2023-01-15T23:08:38;1.10;;;1.10;;
10523;SDS011;5310;48.638;9.060;2023-01-15T23:11:08;1.20;;;1.20;;
10523;SDS011;5310;48.638;9.060;2023-01-15T23:13:38;1.10;;;1.10;;
10523;SDS011;5310;48.638;9.060;2023-01-15T23:16:06;1.10;;;1.10;;
10523;SDS011;5310;48.638;9.060;2023-01-15T23:18:32;1.10;;;1.10;;
10523;SDS011;5310;48.638;9.060;2023-01-15T23:21:03;1.10;;;1.10;;
10523;SDS011;5310;48.638;9.060;2023-01-15T23:23:30;1.10;;;1.10;;
10523;SDS011;5310;48.638;9.060;2023-01-15T23:25:55;1.10;;;1.10;;
10523;SDS011;5310;48.638;9.060;2023-01-15T23:28:21;1.10;;;1.10;;
10523;SDS011;5310;48.638;9.060;2023-01-15T23:30:47;1.13;;;1.13;;
10523;SDS011;5310;48.638;9.060;2023-01-15T23:33:14;1.10;;;1.10;;
10523;SDS011;5310;48.638;9.060;2023-01-15T23:35:39;1.10;;;1.10;;
10523;SDS011;5310;48.638;9.060;2023-01-15T23:38:05;1.10;;;1.10;;
10523;SDS011;5310;48.638;9.060;2023-01-15T23:40:31;1.10;;;1.10;;
10523;SDS011;5310;48.638;9.060;2023-01-15T23:42:57;1.10;;;1.10;;
10523;SDS011;5310;48.638;9.060;2023-01-15T23:45:42;1.10;;;1.10;;
10523;SDS011;5310;48.638;9.060;2023-01-15T23:48:26;1.10;;;1.10;;
10523;SDS011;5310;48.638;9.060;2023-01-15T23:50:52;1.10;;;1.10;;
10523;SDS011;5310;48.638;9.060;2023-01-15T23:53:18;1.10;;;1.10;;
10523;SDS011;5310;48.638;9.060;2023-01-15T23:55:44;1.10;;;1.10;;
10523;SDS011;5310;48.638;9.060;2023-01-15T23:58:10;1.10;;;1.10;;
